sensor_id;sensor_type;location;lat;lon;timestamp;P1;durP1;ratioP1;P2;durP2;ratioP2
15425;SDS011;7812;50.072;7.036;2023-06-24T00:01:27;5.13;;;4.03;;
15425;SDS011;7812;50.072;7.036;2023-06-24T00:03:53;4.70;;;4.30;;
15425;SDS011;7812;50.072;7.036;2023-06-24T00:06:19;6.27;;;4.40;;
15425;SDS011;7812;50.072;7.036;2023-06-24T00:08:46;4.50;;;4.20;;
15425;SDS011;7812;50.072;7.036;2023-06-24T00:11:12;4.90;;;4.50;;
15425;SDS011;7812;50.072;7.036;2023-06-24T00:13:39;4.83;;;4.43;;
15425;SDS011;7812;50.072;7.036;2023-06-24T00:16:05;4.50;;;4.10;;
15425;SDS011;7812;50.072;7.036;2023-06-24T00:18:33;4.90;;;4.43;;
15425;SDS011;7812;50.072;7.036;2023-06-24T00:21:00;4.60;;;4.20;;
15425;SDS011;7812;50.072;7.036;2023-06-24T00:23:29;5.00;;;4.50;;
15425;SDS011;7812;50.072;7.036;2023-06-24T00:25:59;6.20;;;4.30;;
15425;SDS011;7812;50.072;7.036;2023-06-24T00:28:25;5.17;;;4.60;;
15425;SDS011;7812;50.072;7.036;2023-06-24T00:30:52;5.73;;;4.57;;
15425;SDS011;7812;50.072;7.036;2023-06-24T00:33:18;4.77;;;4.37;;
15425;SDS011;7812;50.072;7.036;2023-06-24T00:35:47;4.80;;;4.30;;
15425;SDS011;7812;50.072;7.036;2023-06-24T00:38:12;4.47;;;4.07;;
15425;SDS011;7812;50.072;7.036;2023-06-24T00:40:38;5.17;;;4.57;;
15425;SDS011;7812;50.072;7.036;2023-06-24T00:43:05;6.63;;;4.30;;
15425;SDS011;7812;50.072;7.036;2023-06-24T00:45:31;6.03;;;5.13;;
15425;SDS011;7812;50.072;7.036;2023-06-24T00:48:00;5.33;;;4.83;;
15425;SDS011;7812;50.072;7.036;2023-06-24T00:50:26;5.33;;;4.90;;
15425;SDS011;7812;50.072;7.036;2023-06-24T00:52:52;7.40;;;5.00;;
15425;SDS011;7812;50.072;7.036;2023-06-24T00:55:18;4.67;;;4.27;;
15425;SDS011;7812;50.072;7.036;2023-06-24T00:57:47;5.27;;;4.73;;
15425;SDS011;7812;50.072;7.036;2023-06-24T01:00:19;6.13;;;5.20;;
15425;SDS011;7812;50.072;7.036;2023-06-24T01:02:47;4.80;;;4.50;;
15425;SDS011;7812;50.072;7.036;2023-06-24T01:05:13;5.83;;;4.67;;
15425;SDS011;7812;50.072;7.036;2023-06-24T01:07:39;5.00;;;4.50;;
15425;SDS011;7812;50.072;7.036;2023-06-24T01:10:06;5.23;;;4.70;;
15425;SDS011;7812;50.072;7.036;2023-06-24T01:12:37;4.70;;;4.40;;
15425;SDS011;7812;50.072;7.036;2023-06-24T01:15:04;6.33;;;5.47;;
15425;SDS011;7812;50.072;7.036;2023-06-24T01:33:42;5.57;;;4.97;;
15425;SDS011;7812;50.072;7.036;2023-06-24T01:36:11;6.67;;;5.20;;
15425;SDS011;7812;50.072;7.036;2023-06-24T01:38:43;5.70;;;5.00;;
15425;SDS011;7812;50.072;7.036;2023-06-24T01:41:13;5.20;;;4.77;;
15425;SDS011;7812;50.072;7.036;2023-06-24T01:43:43;5.13;;;4.73;;
15425;SDS011;7812;50.072;7.036;2023-06-24T01:46:10;5.37;;;4.87;;
15425;SDS011;7812;50.072;7.036;2023-06-24T01:48:37;5.50;;;5.00;;
15425;SDS011;7812;50.072;7.036;2023-06-24T01:51:09;6.27;;;4.83;;
15425;SDS011;7812;50.072;7.036;2023-06-24T01:53:37;4.93;;;4.50;;
15425;SDS011;7812;50.072;7.036;2023-06-24T01:56:07;5.03;;;4.60;;
15425;SDS011;7812;50.072;7.036;2023-06-24T01:58:36;5.20;;;4.70;;
15425;SDS011;7812;50.072;7.036;2023-06-24T02:01:03;4.57;;;4.17;;
15425;SDS011;7812;50.072;7.036;2023-06-24T02:03:29;5.10;;;4.70;;
15425;SDS011;7812;50.072;7.036;2023-06-24T02:05:57;5.63;;;4.53;;
15425;SDS011;7812;50.072;7.036;2023-06-24T02:08:24;6.93;;;5.27;;
15425;SDS011;7812;50.072;7.036;2023-06-24T02:10:53;5.73;;;5.07;;
15425;SDS011;7812;50.072;7.036;2023-06-24T02:13:21;5.33;;;4.83;;
15425;SDS011;7812;50.072;7.036;2023-06-24T02:15:48;5.57;;;5.07;;
15425;SDS011;7812;50.072;7.036;2023-06-24T02:18:15;6.97;;;5.20;;
15425;SDS011;7812;50.072;7.036;2023-06-24T02:20:42;5.17;;;4.77;;
15425;SDS011;7812;50.072;7.036;2023-06-24T02:23:09;5.70;;;5.20;;
15425;SDS011;7812;50.072;7.036;2023-06-24T02:25:35;5.63;;;5.13;;
15425;SDS011;7812;50.072;7.036;2023-06-24T02:28:04;5.60;;;5.10;;
15425;SDS011;7812;50.072;7.036;2023-06-24T02:30:32;6.40;;;5.80;;
15425;SDS011;7812;50.072;7.036;2023-06-24T02:32:59;5.63;;;5.13;;
15425;SDS011;7812;50.072;7.036;2023-06-24T02:35:25;6.93;;;5.33;;
15425;SDS011;7812;50.072;7.036;2023-06-24T02:37:50;5.20;;;4.80;;
15425;SDS011;7812;50.072;7.036;2023-06-24T02:40:16;7.07;;;5.27;;
15425;SDS011;7812;50.072;7.036;2023-06-24T02:42:42;6.37;;;5.87;;
15425;SDS011;7812;50.072;7.036;2023-06-24T02:45:08;5.87;;;5.37;;
15425;SDS011;7812;50.072;7.036;2023-06-24T02:47:34;5.73;;;5.10;;
15425;SDS011;7812;50.072;7.036;2023-06-24T02:50:02;6.00;;;5.07;;
15425;SDS011;7812;50.072;7.036;2023-06-24T02:52:29;5.30;;;4.90;;
15425;SDS011;7812;50.072;7.036;2023-06-24T02:54:56;5.40;;;5.00;;
15425;SDS011;7812;50.072;7.036;2023-06-24T02:57:23;5.93;;;5.43;;
15425;SDS011;7812;50.072;7.036;2023-06-24T02:59:50;5.57;;;5.07;;
15425;SDS011;7812;50.072;7.036;2023-06-24T03:02:16;6.30;;;5.70;;
15425;SDS011;7812;50.072;7.036;2023-06-24T03:04:42;6.40;;;4.97;;
15425;SDS011;7812;50.072;7.036;2023-06-24T03:07:09;5.30;;;4.90;;
15425;SDS011;7812;50.072;7.036;2023-06-24T03:09:36;7.20;;;5.10;;
15425;SDS011;7812;50.072;7.036;2023-06-24T03:12:02;5.50;;;5.00;;
15425;SDS011;7812;50.072;7.036;2023-06-24T03:14:28;5.60;;;5.10;;
15425;SDS011;7812;50.072;7.036;2023-06-24T03:16:54;5.67;;;5.07;;
15425;SDS011;7812;50.072;7.036;2023-06-24T03:19:19;5.27;;;4.77;;
15425;SDS011;7812;50.072;7.036;2023-06-24T03:21:45;7.00;;;4.87;;
15425;SDS011;7812;50.072;7.036;2023-06-24T03:24:11;5.37;;;4.93;;
15425;SDS011;7812;50.072;7.036;2023-06-24T03:26:39;5.20;;;4.80;;
15425;SDS011;7812;50.072;7.036;2023-06-24T03:29:05;5.70;;;5.00;;
15425;SDS011;7812;50.072;7.036;2023-06-24T03:31:32;5.80;;;5.23;;
15425;SDS011;7812;50.072;7.036;2023-06-24T03:33:58;6.30;;;5.70;;
15425;SDS011;7812;50.072;7.036;2023-06-24T03:36:23;5.47;;;5.00;;
15425;SDS011;7812;50.072;7.036;2023-06-24T03:38:50;6.30;;;5.70;;
15425;SDS011;7812;50.072;7.036;2023-06-24T03:41:15;5.20;;;4.70;;
15425;SDS011;7812;50.072;7.036;2023-06-24T03:43:41;5.67;;;5.17;;
15425;SDS011;7812;50.072;7.036;2023-06-24T03:46:07;5.90;;;5.40;;
15425;SDS011;7812;50.072;7.036;2023-06-24T03:48:33;5.37;;;4.90;;
15425;SDS011;7812;50.072;7.036;2023-06-24T03:50:59;5.40;;;4.87;;
15425;SDS011;7812;50.072;7.036;2023-06-24T03:53:25;5.50;;;5.10;;
15425;SDS011;7812;50.072;7.036;2023-06-24T03:55:51;6.00;;;5.50;;
15425;SDS011;7812;50.072;7.036;2023-06-24T03:58:16;5.17;;;4.77;;
15425;SDS011;7812;50.072;7.036;2023-06-24T04:00:42;6.10;;;5.00;;
15425;SDS011;7812;50.072;7.036;2023-06-24T04:03:09;8.83;;;5.27;;
15425;SDS011;7812;50.072;7.036;2023-06-24T04:05:35;5.20;;;4.80;;
15425;SDS011;7812;50.072;7.036;2023-06-24T04:08:01;6.63;;;5.13;;
15425;SDS011;7812;50.072;7.036;2023-06-24T04:10:30;5.37;;;4.70;;
15425;SDS011;7812;50.072;7.036;2023-06-24T04:12:56;5.37;;;4.97;;
15425;SDS011;7812;50.072;7.036;2023-06-24T04:15:22;5.57;;;5.17;;
15425;SDS011;7812;50.072;7.036;2023-06-24T04:17:47;5.07;;;4.67;;
15425;SDS011;7812;50.072;7.036;2023-06-24T04:20:13;5.63;;;5.10;;
15425;SDS011;7812;50.072;7.036;2023-06-24T04:22:40;5.50;;;5.10;;
15425;SDS011;7812;50.072;7.036;2023-06-24T04:25:07;4.93;;;4.50;;
15425;SDS011;7812;50.072;7.036;2023-06-24T04:27:33;5.60;;;5.07;;
15425;SDS011;7812;50.072;7.036;2023-06-24T04:30:00;5.43;;;5.00;;
15425;SDS011;7812;50.072;7.036;2023-06-24T04:32:26;4.90;;;4.50;;
15425;SDS011;7812;50.072;7.036;2023-06-24T04:34:52;6.93;;;5.30;;
15425;SDS011;7812;50.072;7.036;2023-06-24T04:37:18;5.53;;;4.93;;
15425;SDS011;7812;50.072;7.036;2023-06-24T04:39:44;6.23;;;5.60;;
15425;SDS011;7812;50.072;7.036;2023-06-24T04:42:10;4.90;;;4.50;;
15425;SDS011;7812;50.072;7.036;2023-06-24T04:44:36;5.70;;;5.20;;
15425;SDS011;7812;50.072;7.036;2023-06-24T04:47:02;5.63;;;5.20;;
15425;SDS011;7812;50.072;7.036;2023-06-24T04:49:28;5.70;;;5.07;;
15425;SDS011;7812;50.072;7.036;2023-06-24T04:51:53;5.20;;;4.80;;
15425;SDS011;7812;50.072;7.036;2023-06-24T04:54:19;5.57;;;5.17;;
15425;SDS011;7812;50.072;7.036;2023-06-24T04:56:45;6.13;;;5.63;;
15425;SDS011;7812;50.072;7.036;2023-06-24T04:59:13;5.80;;;5.17;;
15425;SDS011;7812;50.072;7.036;2023-06-24T05:01:39;5.33;;;4.83;;
15425;SDS011;7812;50.072;7.036;2023-06-24T05:04:04;5.10;;;4.70;;
15425;SDS011;7812;50.072;7.036;2023-06-24T05:06:30;5.20;;;4.63;;
15425;SDS011;7812;50.072;7.036;2023-06-24T05:08:56;5.07;;;4.63;;
15425;SDS011;7812;50.072;7.036;2023-06-24T05:11:21;6.73;;;5.30;;
15425;SDS011;7812;50.072;7.036;2023-06-24T05:13:47;5.30;;;4.80;;
15425;SDS011;7812;50.072;7.036;2023-06-24T05:16:13;6.73;;;5.00;;
15425;SDS011;7812;50.072;7.036;2023-06-24T05:18:38;4.93;;;4.53;;
15425;SDS011;7812;50.072;7.036;2023-06-24T05:21:04;5.97;;;5.47;;
15425;SDS011;7812;50.072;7.036;2023-06-24T05:23:30;6.57;;;4.47;;
15425;SDS011;7812;50.072;7.036;2023-06-24T05:25:55;5.90;;;4.67;;
15425;SDS011;7812;50.072;7.036;2023-06-24T05:28:21;4.40;;;4.03;;
15425;SDS011;7812;50.072;7.036;2023-06-24T05:30:47;4.80;;;4.40;;
15425;SDS011;7812;50.072;7.036;2023-06-24T05:33:12;4.30;;;4.00;;
15425;SDS011;7812;50.072;7.036;2023-06-24T05:35:38;4.97;;;4.57;;
15425;SDS011;7812;50.072;7.036;2023-06-24T05:38:05;5.13;;;4.63;;
15425;SDS011;7812;50.072;7.036;2023-06-24T05:40:31;4.80;;;4.33;;
15425;SDS011;7812;50.072;7.036;2023-06-24T05:42:57;4.90;;;4.40;;
15425;SDS011;7812;50.072;7.036;2023-06-24T05:45:23;4.63;;;4.13;;
15425;SDS011;7812;50.072;7.036;2023-06-24T05:47:48;4.67;;;4.27;;
15425;SDS011;7812;50.072;7.036;2023-06-24T05:50:14;4.63;;;4.23;;
15425;SDS011;7812;50.072;7.036;2023-06-24T05:52:40;5.27;;;3.97;;
15425;SDS011;7812;50.072;7.036;2023-06-24T05:55:05;4.33;;;3.93;;
15425;SDS011;7812;50.072;7.036;2023-06-24T05:57:31;4.60;;;4.20;;
15425;SDS011;7812;50.072;7.036;2023-06-24T05:59:57;5.10;;;4.20;;
15425;SDS011;7812;50.072;7.036;2023-06-24T06:02:23;4.13;;;3.83;;
15425;SDS011;7812;50.072;7.036;2023-06-24T06:04:49;4.73;;;4.33;;
15425;SDS011;7812;50.072;7.036;2023-06-24T06:07:15;4.27;;;3.87;;
15425;SDS011;7812;50.072;7.036;2023-06-24T06:09:41;4.17;;;3.87;;
15425;SDS011;7812;50.072;7.036;2023-06-24T06:12:07;4.37;;;3.70;;
15425;SDS011;7812;50.072;7.036;2023-06-24T06:14:33;4.13;;;3.77;;
15425;SDS011;7812;50.072;7.036;2023-06-24T06:16:59;4.20;;;3.90;;
15425;SDS011;7812;50.072;7.036;2023-06-24T06:19:24;4.07;;;3.67;;
15425;SDS011;7812;50.072;7.036;2023-06-24T06:21:50;4.93;;;3.97;;
15425;SDS011;7812;50.072;7.036;2023-06-24T06:24:17;3.63;;;3.33;;
15425;SDS011;7812;50.072;7.036;2023-06-24T06:26:42;4.10;;;3.77;;
15425;SDS011;7812;50.072;7.036;2023-06-24T06:29:09;3.77;;;3.47;;
15425;SDS011;7812;50.072;7.036;2023-06-24T06:31:37;5.33;;;3.40;;
15425;SDS011;7812;50.072;7.036;2023-06-24T06:34:03;3.97;;;3.43;;
15425;SDS011;7812;50.072;7.036;2023-06-24T06:36:29;3.37;;;3.17;;
15425;SDS011;7812;50.072;7.036;2023-06-24T06:38:55;4.80;;;3.40;;
15425;SDS011;7812;50.072;7.036;2023-06-24T06:41:21;4.03;;;3.20;;
15425;SDS011;7812;50.072;7.036;2023-06-24T06:43:49;3.30;;;3.10;;
15425;SDS011;7812;50.072;7.036;2023-06-24T06:46:16;3.40;;;3.10;;
15425;SDS011;7812;50.072;7.036;2023-06-24T06:48:42;5.00;;;3.30;;
15425;SDS011;7812;50.072;7.036;2023-06-24T06:51:07;3.00;;;2.70;;
15425;SDS011;7812;50.072;7.036;2023-06-24T06:53:33;3.50;;;2.77;;
15425;SDS011;7812;50.072;7.036;2023-06-24T06:55:59;3.17;;;2.90;;
15425;SDS011;7812;50.072;7.036;2023-06-24T06:58:24;3.20;;;2.90;;
15425;SDS011;7812;50.072;7.036;2023-06-24T07:00:50;3.07;;;2.87;;
15425;SDS011;7812;50.072;7.036;2023-06-24T07:03:16;3.10;;;2.90;;
15425;SDS011;7812;50.072;7.036;2023-06-24T07:05:41;3.07;;;2.87;;
15425;SDS011;7812;50.072;7.036;2023-06-24T07:08:07;3.40;;;3.10;;
15425;SDS011;7812;50.072;7.036;2023-06-24T07:10:33;3.37;;;2.80;;
15425;SDS011;7812;50.072;7.036;2023-06-24T07:12:59;3.10;;;2.90;;
15425;SDS011;7812;50.072;7.036;2023-06-24T07:15:25;4.40;;;3.00;;
15425;SDS011;7812;50.072;7.036;2023-06-24T07:17:51;3.43;;;3.13;;
15425;SDS011;7812;50.072;7.036;2023-06-24T07:20:18;3.03;;;2.50;;
15425;SDS011;7812;50.072;7.036;2023-06-24T07:22:44;3.53;;;3.13;;
15425;SDS011;7812;50.072;7.036;2023-06-24T07:25:09;3.00;;;2.80;;
15425;SDS011;7812;50.072;7.036;2023-06-24T07:27:35;6.90;;;3.00;;
15425;SDS011;7812;50.072;7.036;2023-06-24T07:30:01;3.47;;;3.17;;
15425;SDS011;7812;50.072;7.036;2023-06-24T07:32:26;4.63;;;3.10;;
15425;SDS011;7812;50.072;7.036;2023-06-24T07:34:52;3.13;;;2.90;;
15425;SDS011;7812;50.072;7.036;2023-06-24T07:37:17;2.90;;;2.67;;
15425;SDS011;7812;50.072;7.036;2023-06-24T07:39:43;4.10;;;2.50;;
15425;SDS011;7812;50.072;7.036;2023-06-24T07:42:09;3.07;;;2.50;;
15425;SDS011;7812;50.072;7.036;2023-06-24T07:44:34;2.50;;;2.30;;
15425;SDS011;7812;50.072;7.036;2023-06-24T07:47:03;2.87;;;2.60;;
15425;SDS011;7812;50.072;7.036;2023-06-24T07:49:28;2.80;;;2.60;;
15425;SDS011;7812;50.072;7.036;2023-06-24T07:51:54;2.80;;;2.60;;
15425;SDS011;7812;50.072;7.036;2023-06-24T07:54:19;3.40;;;3.13;;
15425;SDS011;7812;50.072;7.036;2023-06-24T07:56:45;2.90;;;2.60;;
15425;SDS011;7812;50.072;7.036;2023-06-24T07:59:11;2.87;;;2.67;;
15425;SDS011;7812;50.072;7.036;2023-06-24T08:01:36;2.90;;;2.70;;
15425;SDS011;7812;50.072;7.036;2023-06-24T08:04:02;3.43;;;3.17;;
15425;SDS011;7812;50.072;7.036;2023-06-24T08:06:28;3.20;;;2.90;;
15425;SDS011;7812;50.072;7.036;2023-06-24T08:08:53;3.17;;;2.87;;
15425;SDS011;7812;50.072;7.036;2023-06-24T08:11:19;3.00;;;2.80;;
15425;SDS011;7812;50.072;7.036;2023-06-24T08:13:46;3.07;;;2.77;;
15425;SDS011;7812;50.072;7.036;2023-06-24T08:16:12;3.57;;;2.63;;
15425;SDS011;7812;50.072;7.036;2023-06-24T08:18:40;2.97;;;2.77;;
15425;SDS011;7812;50.072;7.036;2023-06-24T08:21:06;5.93;;;3.70;;
15425;SDS011;7812;50.072;7.036;2023-06-24T08:23:33;4.67;;;3.33;;
15425;SDS011;7812;50.072;7.036;2023-06-24T08:25:59;5.90;;;4.00;;
15425;SDS011;7812;50.072;7.036;2023-06-24T08:28:24;3.93;;;3.50;;
15425;SDS011;7812;50.072;7.036;2023-06-24T08:30:50;6.73;;;3.43;;
15425;SDS011;7812;50.072;7.036;2023-06-24T08:33:15;3.73;;;3.00;;
15425;SDS011;7812;50.072;7.036;2023-06-24T08:35:41;3.70;;;3.27;;
15425;SDS011;7812;50.072;7.036;2023-06-24T08:38:07;5.73;;;3.10;;
15425;SDS011;7812;50.072;7.036;2023-06-24T08:40:32;4.27;;;3.10;;
15425;SDS011;7812;50.072;7.036;2023-06-24T08:42:59;3.47;;;2.40;;
15425;SDS011;7812;50.072;7.036;2023-06-24T08:45:24;6.13;;;3.10;;
15425;SDS011;7812;50.072;7.036;2023-06-24T08:47:50;4.23;;;2.60;;
15425;SDS011;7812;50.072;7.036;2023-06-24T08:50:17;3.27;;;2.70;;
15425;SDS011;7812;50.072;7.036;2023-06-24T08:52:53;3.87;;;2.50;;
15425;SDS011;7812;50.072;7.036;2023-06-24T08:55:21;2.93;;;2.63;;
15425;SDS011;7812;50.072;7.036;2023-06-24T08:57:48;3.83;;;3.30;;
15425;SDS011;7812;50.072;7.036;2023-06-24T09:00:13;3.63;;;3.33;;
15425;SDS011;7812;50.072;7.036;2023-06-24T09:02:40;3.10;;;2.80;;
15425;SDS011;7812;50.072;7.036;2023-06-24T09:05:06;6.43;;;3.80;;
15425;SDS011;7812;50.072;7.036;2023-06-24T09:07:32;4.30;;;3.50;;
15425;SDS011;7812;50.072;7.036;2023-06-24T09:09:58;3.10;;;2.87;;
15425;SDS011;7812;50.072;7.036;2023-06-24T09:12:25;3.13;;;2.83;;
15425;SDS011;7812;50.072;7.036;2023-06-24T09:14:51;3.90;;;3.33;;
15425;SDS011;7812;50.072;7.036;2023-06-24T09:17:17;3.13;;;2.83;;
15425;SDS011;7812;50.072;7.036;2023-06-24T09:19:47;3.37;;;3.07;;
15425;SDS011;7812;50.072;7.036;2023-06-24T09:22:16;3.00;;;2.73;;
15425;SDS011;7812;50.072;7.036;2023-06-24T09:24:45;5.80;;;3.07;;
15425;SDS011;7812;50.072;7.036;2023-06-24T09:27:15;3.30;;;3.00;;
15425;SDS011;7812;50.072;7.036;2023-06-24T09:29:42;3.40;;;3.10;;
15425;SDS011;7812;50.072;7.036;2023-06-24T09:32:08;3.40;;;3.10;;
15425;SDS011;7812;50.072;7.036;2023-06-24T09:34:34;3.00;;;2.80;;
15425;SDS011;7812;50.072;7.036;2023-06-24T09:37:00;3.57;;;2.70;;
15425;SDS011;7812;50.072;7.036;2023-06-24T09:39:27;3.33;;;3.00;;
15425;SDS011;7812;50.072;7.036;2023-06-24T09:44:22;4.17;;;2.50;;
15425;SDS011;7812;50.072;7.036;2023-06-24T09:46:48;3.37;;;3.13;;
15425;SDS011;7812;50.072;7.036;2023-06-24T09:49:14;4.20;;;3.03;;
15425;SDS011;7812;50.072;7.036;2023-06-24T09:51:44;3.37;;;2.70;;
15425;SDS011;7812;50.072;7.036;2023-06-24T09:54:12;2.90;;;2.60;;
15425;SDS011;7812;50.072;7.036;2023-06-24T09:56:43;2.67;;;2.47;;
15425;SDS011;7812;50.072;7.036;2023-06-24T09:59:10;3.10;;;2.43;;
15425;SDS011;7812;50.072;7.036;2023-06-24T10:01:43;3.53;;;2.80;;
15425;SDS011;7812;50.072;7.036;2023-06-24T10:04:16;3.63;;;2.37;;
15425;SDS011;7812;50.072;7.036;2023-06-24T10:06:43;2.87;;;2.60;;
15425;SDS011;7812;50.072;7.036;2023-06-24T10:09:09;2.83;;;2.60;;
15425;SDS011;7812;50.072;7.036;2023-06-24T10:11:35;2.87;;;2.63;;
15425;SDS011;7812;50.072;7.036;2023-06-24T10:14:01;3.03;;;2.73;;
15425;SDS011;7812;50.072;7.036;2023-06-24T10:16:27;2.93;;;2.63;;
15425;SDS011;7812;50.072;7.036;2023-06-24T10:18:53;3.20;;;2.90;;
15425;SDS011;7812;50.072;7.036;2023-06-24T10:22:11;2.77;;;2.57;;
15425;SDS011;7812;50.072;7.036;2023-06-24T10:29:49;3.93;;;2.73;;
15425;SDS011;7812;50.072;7.036;2023-06-24T10:32:21;2.93;;;2.60;;
15425;SDS011;7812;50.072;7.036;2023-06-24T10:34:57;2.57;;;2.37;;
15425;SDS011;7812;50.072;7.036;2023-06-24T10:37:23;2.60;;;2.40;;
15425;SDS011;7812;50.072;7.036;2023-06-24T10:42:26;2.70;;;2.50;;
15425;SDS011;7812;50.072;7.036;2023-06-24T10:47:34;2.67;;;2.47;;
15425;SDS011;7812;50.072;7.036;2023-06-24T10:50:07;3.60;;;2.43;;
15425;SDS011;7812;50.072;7.036;2023-06-24T10:52:37;3.50;;;2.50;;
15425;SDS011;7812;50.072;7.036;2023-06-24T10:55:08;3.10;;;2.53;;
15425;SDS011;7812;50.072;7.036;2023-06-24T10:57:33;2.70;;;2.50;;
15425;SDS011;7812;50.072;7.036;2023-06-24T11:00:00;4.20;;;3.30;;
15425;SDS011;7812;50.072;7.036;2023-06-24T11:02:28;3.70;;;3.40;;
15425;SDS011;7812;50.072;7.036;2023-06-24T11:05:00;3.10;;;2.83;;
15425;SDS011;7812;50.072;7.036;2023-06-24T11:07:28;3.37;;;3.17;;
15425;SDS011;7812;50.072;7.036;2023-06-24T11:12:32;2.90;;;2.70;;
15425;SDS011;7812;50.072;7.036;2023-06-24T11:15:06;3.57;;;3.13;;
15425;SDS011;7812;50.072;7.036;2023-06-24T11:17:33;3.47;;;3.17;;
15425;SDS011;7812;50.072;7.036;2023-06-24T11:20:00;2.83;;;2.63;;
15425;SDS011;7812;50.072;7.036;2023-06-24T11:22:26;3.77;;;3.03;;
15425;SDS011;7812;50.072;7.036;2023-06-24T11:24:52;3.00;;;2.80;;
15425;SDS011;7812;50.072;7.036;2023-06-24T11:27:26;3.10;;;2.90;;
15425;SDS011;7812;50.072;7.036;2023-06-24T11:29:53;3.10;;;2.90;;
15425;SDS011;7812;50.072;7.036;2023-06-24T11:32:20;3.40;;;3.10;;
15425;SDS011;7812;50.072;7.036;2023-06-24T11:34:46;3.77;;;3.40;;
15425;SDS011;7812;50.072;7.036;2023-06-24T11:37:13;3.20;;;3.00;;
15425;SDS011;7812;50.072;7.036;2023-06-24T11:39:42;3.00;;;2.80;;
15425;SDS011;7812;50.072;7.036;2023-06-24T11:42:08;3.50;;;3.20;;
15425;SDS011;7812;50.072;7.036;2023-06-24T11:44:35;3.83;;;3.50;;
15425;SDS011;7812;50.072;7.036;2023-06-24T11:47:07;3.27;;;2.97;;
15425;SDS011;7812;50.072;7.036;2023-06-24T11:52:15;3.43;;;2.67;;
15425;SDS011;7812;50.072;7.036;2023-06-24T11:54:41;3.23;;;2.93;;
15425;SDS011;7812;50.072;7.036;2023-06-24T11:57:08;2.50;;;2.30;;
15425;SDS011;7812;50.072;7.036;2023-06-24T11:59:34;3.37;;;2.60;;
15425;SDS011;7812;50.072;7.036;2023-06-24T12:02:00;2.80;;;2.60;;
15425;SDS011;7812;50.072;7.036;2023-06-24T12:04:31;3.17;;;2.60;;
15425;SDS011;7812;50.072;7.036;2023-06-24T12:06:59;3.13;;;2.87;;
15425;SDS011;7812;50.072;7.036;2023-06-24T12:09:25;3.13;;;2.43;;
15425;SDS011;7812;50.072;7.036;2023-06-24T12:11:51;2.97;;;2.57;;
15425;SDS011;7812;50.072;7.036;2023-06-24T12:14:17;3.27;;;2.53;;
15425;SDS011;7812;50.072;7.036;2023-06-24T12:16:43;2.33;;;2.13;;
15425;SDS011;7812;50.072;7.036;2023-06-24T12:19:09;2.60;;;2.40;;
15425;SDS011;7812;50.072;7.036;2023-06-24T12:21:36;3.17;;;2.80;;
15425;SDS011;7812;50.072;7.036;2023-06-24T12:24:03;3.70;;;2.50;;
15425;SDS011;7812;50.072;7.036;2023-06-24T12:26:29;2.83;;;2.57;;
15425;SDS011;7812;50.072;7.036;2023-06-24T12:28:55;2.60;;;2.40;;
15425;SDS011;7812;50.072;7.036;2023-06-24T12:31:22;3.90;;;2.93;;
15425;SDS011;7812;50.072;7.036;2023-06-24T12:33:49;2.30;;;2.10;;
15425;SDS011;7812;50.072;7.036;2023-06-24T12:36:16;2.80;;;2.60;;
15425;SDS011;7812;50.072;7.036;2023-06-24T12:38:42;2.80;;;2.60;;
15425;SDS011;7812;50.072;7.036;2023-06-24T12:41:07;3.40;;;2.33;;
15425;SDS011;7812;50.072;7.036;2023-06-24T12:43:33;2.27;;;2.17;;
15425;SDS011;7812;50.072;7.036;2023-06-24T12:45:59;2.60;;;2.40;;
15425;SDS011;7812;50.072;7.036;2023-06-24T12:48:24;3.63;;;2.80;;
15425;SDS011;7812;50.072;7.036;2023-06-24T12:50:51;2.60;;;2.40;;
15425;SDS011;7812;50.072;7.036;2023-06-24T12:53:20;2.60;;;2.40;;
15425;SDS011;7812;50.072;7.036;2023-06-24T12:55:46;4.70;;;2.57;;
15425;SDS011;7812;50.072;7.036;2023-06-24T12:58:18;2.60;;;2.40;;
15425;SDS011;7812;50.072;7.036;2023-06-24T13:00:44;2.70;;;2.50;;
15425;SDS011;7812;50.072;7.036;2023-06-24T13:03:10;3.03;;;2.60;;
15425;SDS011;7812;50.072;7.036;2023-06-24T13:05:36;3.60;;;2.77;;
15425;SDS011;7812;50.072;7.036;2023-06-24T13:08:01;2.43;;;2.23;;
15425;SDS011;7812;50.072;7.036;2023-06-24T13:10:27;3.17;;;2.30;;
15425;SDS011;7812;50.072;7.036;2023-06-24T13:12:53;2.63;;;2.43;;
15425;SDS011;7812;50.072;7.036;2023-06-24T13:15:18;2.50;;;2.30;;
15425;SDS011;7812;50.072;7.036;2023-06-24T13:17:44;3.60;;;2.60;;
15425;SDS011;7812;50.072;7.036;2023-06-24T13:20:10;3.13;;;2.83;;
15425;SDS011;7812;50.072;7.036;2023-06-24T13:22:36;2.17;;;2.07;;
15425;SDS011;7812;50.072;7.036;2023-06-24T13:25:02;3.20;;;2.40;;
15425;SDS011;7812;50.072;7.036;2023-06-24T13:27:28;3.03;;;2.60;;
15425;SDS011;7812;50.072;7.036;2023-06-24T13:29:53;3.23;;;2.57;;
15425;SDS011;7812;50.072;7.036;2023-06-24T13:32:19;3.17;;;2.67;;
15425;SDS011;7812;50.072;7.036;2023-06-24T13:34:44;2.93;;;2.57;;
15425;SDS011;7812;50.072;7.036;2023-06-24T13:37:10;2.70;;;2.50;;
15425;SDS011;7812;50.072;7.036;2023-06-24T13:39:36;2.80;;;2.37;;
15425;SDS011;7812;50.072;7.036;2023-06-24T13:42:02;2.60;;;2.40;;
15425;SDS011;7812;50.072;7.036;2023-06-24T13:44:27;3.00;;;2.63;;
15425;SDS011;7812;50.072;7.036;2023-06-24T13:46:53;2.50;;;2.30;;
15425;SDS011;7812;50.072;7.036;2023-06-24T13:49:19;2.93;;;2.50;;
15425;SDS011;7812;50.072;7.036;2023-06-24T13:51:45;2.43;;;2.23;;
15425;SDS011;7812;50.072;7.036;2023-06-24T13:54:10;3.20;;;2.57;;
15425;SDS011;7812;50.072;7.036;2023-06-24T13:56:36;3.30;;;3.00;;
15425;SDS011;7812;50.072;7.036;2023-06-24T13:59:02;2.83;;;2.50;;
15425;SDS011;7812;50.072;7.036;2023-06-24T14:01:28;3.00;;;2.63;;
15425;SDS011;7812;50.072;7.036;2023-06-24T14:03:54;2.70;;;2.50;;
15425;SDS011;7812;50.072;7.036;2023-06-24T14:06:21;2.53;;;2.33;;
15425;SDS011;7812;50.072;7.036;2023-06-24T14:08:47;2.97;;;2.67;;
15425;SDS011;7812;50.072;7.036;2023-06-24T14:11:13;3.33;;;2.70;;
15425;SDS011;7812;50.072;7.036;2023-06-24T14:13:39;2.70;;;2.50;;
15425;SDS011;7812;50.072;7.036;2023-06-24T14:16:06;2.50;;;2.30;;
15425;SDS011;7812;50.072;7.036;2023-06-24T14:18:31;3.40;;;2.70;;
15425;SDS011;7812;50.072;7.036;2023-06-24T14:20:58;2.53;;;2.20;;
15425;SDS011;7812;50.072;7.036;2023-06-24T14:23:25;3.47;;;2.50;;
15425;SDS011;7812;50.072;7.036;2023-06-24T14:25:51;2.90;;;2.60;;
15425;SDS011;7812;50.072;7.036;2023-06-24T14:28:17;2.97;;;2.67;;
15425;SDS011;7812;50.072;7.036;2023-06-24T14:30:43;3.57;;;2.70;;
15425;SDS011;7812;50.072;7.036;2023-06-24T14:33:08;4.30;;;2.73;;
15425;SDS011;7812;50.072;7.036;2023-06-24T14:35:35;2.77;;;2.57;;
15425;SDS011;7812;50.072;7.036;2023-06-24T14:38:01;2.60;;;2.40;;
15425;SDS011;7812;50.072;7.036;2023-06-24T14:40:27;2.50;;;2.30;;
15425;SDS011;7812;50.072;7.036;2023-06-24T14:42:52;2.77;;;2.57;;
15425;SDS011;7812;50.072;7.036;2023-06-24T14:45:18;3.30;;;2.57;;
15425;SDS011;7812;50.072;7.036;2023-06-24T14:47:44;2.73;;;2.50;;
15425;SDS011;7812;50.072;7.036;2023-06-24T14:50:09;2.60;;;2.40;;
15425;SDS011;7812;50.072;7.036;2023-06-24T14:52:35;2.70;;;2.50;;
15425;SDS011;7812;50.072;7.036;2023-06-24T14:55:01;3.90;;;2.37;;
15425;SDS011;7812;50.072;7.036;2023-06-24T14:57:27;2.73;;;2.30;;
15425;SDS011;7812;50.072;7.036;2023-06-24T14:59:52;2.80;;;2.47;;
15425;SDS011;7812;50.072;7.036;2023-06-24T15:02:18;3.13;;;2.30;;
15425;SDS011;7812;50.072;7.036;2023-06-24T15:04:44;2.63;;;2.43;;
15425;SDS011;7812;50.072;7.036;2023-06-24T15:07:09;2.90;;;2.60;;
15425;SDS011;7812;50.072;7.036;2023-06-24T15:09:35;2.70;;;2.50;;
15425;SDS011;7812;50.072;7.036;2023-06-24T15:12:02;3.37;;;2.40;;
15425;SDS011;7812;50.072;7.036;2023-06-24T15:14:28;2.50;;;2.30;;
15425;SDS011;7812;50.072;7.036;2023-06-24T15:16:53;2.93;;;2.50;;
15425;SDS011;7812;50.072;7.036;2023-06-24T15:19:22;3.30;;;2.37;;
15425;SDS011;7812;50.072;7.036;2023-06-24T15:21:48;2.73;;;2.47;;
15425;SDS011;7812;50.072;7.036;2023-06-24T15:24:14;2.40;;;2.20;;
15425;SDS011;7812;50.072;7.036;2023-06-24T15:26:39;2.53;;;2.33;;
15425;SDS011;7812;50.072;7.036;2023-06-24T15:29:05;3.20;;;2.70;;
15425;SDS011;7812;50.072;7.036;2023-06-24T15:31:31;2.67;;;2.47;;